KGKY

Arlington Municipal Airport

Arlington, Texas, USA
METAR KGKY 172053Z VRB06KT 10SM OVC011 10/08 A3005 RMK AO2 SLP173 T01000083 58011 $
Observed Flight Rules
Dec-17 @ 20:53 UTC (31 minutes ago) Marginal Visual Flight Rules
Wind Visibility Clouds
Variable at 6 knots 10 miles
  • Overcast at 1,100' AGL
Temperatures Readings
Current 10°C / 50°F
Dewpoint 8°C / 46°F
Humidity 88%
Altimeter 30.05" Hg
Pressure 1017.3 hPa
Elevation 192
METAR KGKY 172053Z VRB06KT 10SM OVC011 10/08 A3005 RMK AO2 SLP173 T01000083 58011 $
Observed Flight Rules
Dec-17 @ 20:53 UTC
(31 minutes ago)
MVFR
Wind Visibility
Variable at 6 knots 10 miles
Clouds
  • Overcast at 1,100' AGL
Temperature Dewpoint
10°C / 50°F 8°C / 46°F
Humidity Altimeter Pressure
88% 30.05" Hg 1017.3 hPa